18:42
Airports
History
Links
Donate
Help keep this website running!
PayPal
Bitcoin
This page is community maintained. The information is intended for PC simulator navigation or reference.
Always use approved charts for navigation.
SIQA
Senador Antonio Farias
Senador Antonio Farias (SIQA)
Baía Formosa, Rio Grande do Norte, Brazil (59194)
(U)
Lat/Lng:6° 24' 27" S / 35° 2' 41" W
-6.4075 / -35.044722
Elevation:171'ft / 52mMSL
ID / ICAO:SIQA
Runways:1
Longest:14-32
Asphalt 901m / 2,957ft
Nearby Weather18:00 GMT 2018-02-21
Nearby weather at SBNT, Augusto Severo located 37.0 nautical miles from SIQA
Altimeter: 29.80
Visibility: 6.2 statute miles
Wind: 11 knots (from 100°)
Temp: 30°c / 86°f
Humidity: 66.2%

METAR: SBNT 211800Z 10011KT 9999 FEW030 30/23 Q1009

(Powered by phpweather)
Runway 14 / 32
Dimensions:901.2 x 18m 2957' x 59'ft
Surface:Asphalt
Runway 14 [A]Runway 32 [B]
Heading:118°TH 298°TH
Lat:
Lng:
6° 24' 20.09"S
35° 2' 53.93"W
6° 24' 33.91"S
35° 2' 28.07"W
User Notes and Comments
6° 24' 27" S / 35° 2' 41" W
Distance To
Airport ID:
Nearby Airports
(C) Rio Tinto 26.8 NM
SNRN S 188°
4 Severino Lopes 29.9 NM
SJBX NNW 333°
(C) Augusto Severo 37.0 NM
SBNT ( WX ) NNW 337°
(U) Tabuleiro 44.8 NM
SJFU WSW 243°
(U) JOAO PESSOA AEROCLUBE 49.3 NM
SNJO SSE 163°
(C) Presidente Castro Pinto 51.6 NM
SBJP ( WX ) S 172°
(U) CEARA MIRIM 57.5 NM
SB38 NNW 333°
VFR Chart
Flight Planning at SkyVector.com